createdAt,value
2023-01-28T00:00:14.481Z,1.48
2023-01-28T00:02:43.782Z,1.48
2023-01-28T00:05:13.406Z,1.51
2023-01-28T00:07:42.828Z,1.46
2023-01-28T00:10:12.430Z,1.46
2023-01-28T00:12:41.673Z,1.48
2023-01-28T00:15:12.046Z,1.44
2023-01-28T00:17:41.529Z,1.46
2023-01-28T00:20:11.854Z,1.42
2023-01-28T00:22:41.167Z,1.39
2023-01-28T00:25:10.800Z,1.40
2023-01-28T00:27:40.029Z,1.41
2023-01-28T00:30:10.383Z,1.40
2023-01-28T00:32:39.620Z,1.40
2023-01-28T00:35:09.542Z,1.40
2023-01-28T00:37:38.957Z,1.42
2023-01-28T00:40:10.163Z,1.36
2023-01-28T00:42:39.376Z,1.36
2023-01-28T00:45:09.432Z,1.37
2023-01-28T00:47:38.716Z,1.36
2023-01-28T00:50:09.364Z,1.34
2023-01-28T00:52:39.177Z,1.35
2023-01-28T00:55:09.408Z,1.35
2023-01-28T00:57:38.672Z,1.35
2023-01-28T01:00:09.028Z,1.31
2023-01-28T01:02:40.880Z,1.37
2023-01-28T01:05:10.122Z,1.32
2023-01-28T01:07:42.472Z,1.35
2023-01-28T01:10:14.234Z,1.32
2023-01-28T01:12:43.611Z,1.31
2023-01-28T01:15:13.675Z,1.31
2023-01-28T01:17:44.992Z,1.35
2023-01-28T01:20:19.389Z,1.38
2023-01-28T01:22:49.009Z,1.31
2023-01-28T01:25:19.761Z,1.34
2023-01-28T01:27:50.703Z,1.24
2023-01-28T01:30:20.580Z,1.25
2023-01-28T01:32:50.206Z,1.25
2023-01-28T01:35:19.824Z,1.29
2023-01-28T01:37:49.191Z,1.28
2023-01-28T01:40:18.707Z,1.24
2023-01-28T01:42:48.260Z,1.25
2023-01-28T01:45:18.048Z,1.25
2023-01-28T01:47:58.707Z,1.20
2023-01-28T01:50:31.255Z,1.20
2023-01-28T01:53:03.643Z,1.18
2023-01-28T01:55:37.644Z,1.18
2023-01-28T01:58:09.096Z,1.20
2023-01-28T02:00:38.361Z,1.18
2023-01-28T02:03:07.584Z,1.19
2023-01-28T02:05:38.653Z,1.13
2023-01-28T02:08:23.886Z,1.09
2023-01-28T02:11:04.246Z,1.13
2023-01-28T02:13:39.650Z,1.06
2023-01-28T02:16:10.466Z,1.04
2023-01-28T02:18:39.960Z,1.03
2023-01-28T02:21:29.509Z,1.01
2023-01-28T02:24:20.087Z,1.05
2023-01-28T02:26:58.850Z,1.06
2023-01-28T02:29:34.217Z,0.99
2023-01-28T02:32:23.011Z,1.04
2023-01-28T02:34:55.764Z,0.96
2023-01-28T02:37:28.420Z,0.95
2023-01-28T02:40:04.301Z,0.96
2023-01-28T02:42:36.065Z,1.04
2023-01-28T02:45:14.554Z,0.96
2023-01-28T02:47:59.686Z,0.94
2023-01-28T02:50:32.263Z,0.98
2023-01-28T02:53:38.348Z,0.95
2023-01-28T02:56:31.973Z,0.93
2023-01-28T02:59:34.162Z,0.93
2023-01-28T03:02:31.356Z,0.88
2023-01-28T03:05:16.392Z,0.89
2023-01-28T03:07:46.286Z,0.90
2023-01-28T03:10:18.658Z,0.90
2023-01-28T03:13:08.818Z,0.87
2023-01-28T03:16:07.440Z,0.90
2023-01-28T03:19:06.536Z,0.88
2023-01-28T03:22:00.096Z,0.88
2023-01-28T03:24:54.767Z,0.93
2023-01-28T03:27:45.056Z,0.93
2023-01-28T03:30:38.142Z,0.88
2023-01-28T03:33:27.085Z,0.89
2023-01-28T03:36:14.408Z,0.86
2023-01-28T03:38:46.213Z,0.86
2023-01-28T03:41:24.219Z,0.88
2023-01-28T03:43:54.993Z,0.85
2023-01-28T03:46:24.538Z,0.81
2023-01-28T03:48:54.897Z,0.88
2023-01-28T03:51:24.189Z,0.87
2023-01-28T03:53:54.631Z,0.87
2023-01-28T03:56:24.621Z,0.84
2023-01-28T03:58:56.680Z,0.84
2023-01-28T04:01:26.462Z,0.84
2023-01-28T04:03:55.727Z,0.81
2023-01-28T04:06:26.938Z,0.78
2023-01-28T04:09:00.827Z,0.76
2023-01-28T04:11:34.676Z,0.76
2023-01-28T04:14:05.704Z,0.72
2023-01-28T04:16:39.888Z,0.74
2023-01-28T04:19:09.776Z,0.77
2023-01-28T04:21:39.217Z,0.82
2023-01-28T04:24:08.914Z,0.78
2023-01-28T04:26:38.326Z,0.77
2023-01-28T04:29:07.905Z,0.73
2023-01-28T04:31:38.634Z,0.76
2023-01-28T04:34:20.125Z,0.73
2023-01-28T04:36:54.014Z,0.74
2023-01-28T04:39:27.946Z,0.78
2023-01-28T04:42:01.933Z,0.79
2023-01-28T04:44:51.356Z,0.76
2023-01-28T04:47:22.576Z,0.70
2023-01-28T04:49:53.504Z,0.72
2023-01-28T04:52:30.673Z,0.71
2023-01-28T04:55:04.572Z,0.70
2023-01-28T04:57:34.025Z,0.66
2023-01-28T05:00:05.687Z,0.63
2023-01-28T05:02:34.978Z,0.66
2023-01-28T05:05:06.692Z,0.66
2023-01-28T05:07:48.822Z,0.69
2023-01-28T05:10:19.504Z,0.67
2023-01-28T05:12:49.980Z,0.67
2023-01-28T05:15:20.958Z,0.66
2023-01-28T05:17:50.789Z,0.71
2023-01-28T05:20:22.111Z,0.69
2023-01-28T05:22:51.958Z,0.67
2023-01-28T05:25:23.215Z,0.77
2023-01-28T05:27:53.339Z,0.76
2023-01-28T05:30:23.333Z,0.72
2023-01-28T05:32:57.189Z,0.69
2023-01-28T05:35:27.000Z,0.71
2023-01-28T05:37:56.374Z,0.67
2023-01-28T05:40:25.779Z,0.70
2023-01-28T05:42:55.177Z,0.73
2023-01-28T05:45:32.470Z,0.69
2023-01-28T05:48:16.521Z,0.70
2023-01-28T05:50:51.053Z,0.67
2023-01-28T05:53:22.220Z,0.66
2023-01-28T05:55:53.587Z,0.68
2023-01-28T05:58:24.176Z,0.68
2023-01-28T06:00:56.721Z,0.71
2023-01-28T06:03:27.608Z,0.73
2023-01-28T06:05:58.399Z,0.70
2023-01-28T06:08:27.582Z,0.68
2023-01-28T06:10:57.308Z,0.69
2023-01-28T06:13:26.873Z,0.68
2023-01-28T06:16:16.376Z,0.67
2023-01-28T06:18:47.425Z,0.72
2023-01-28T06:21:16.692Z,0.63
2023-01-28T06:23:46.072Z,0.64
2023-01-28T06:26:15.637Z,0.67
2023-01-28T06:28:46.693Z,0.60
2023-01-28T06:31:16.458Z,0.65
2023-01-28T06:33:46.253Z,0.65
2023-01-28T06:36:16.169Z,0.61
2023-01-28T06:38:45.469Z,0.63
2023-01-28T06:41:14.686Z,0.59
2023-01-28T06:43:43.899Z,0.59
2023-01-28T06:46:13.372Z,0.59
2023-01-28T06:48:42.770Z,0.62
2023-01-28T06:51:12.396Z,0.65
2023-01-28T06:53:41.610Z,0.62
2023-01-28T06:56:11.235Z,0.58
2023-01-28T06:58:40.447Z,0.56
2023-01-28T07:01:09.716Z,0.57
2023-01-28T07:03:38.963Z,0.56
2023-01-28T07:06:08.527Z,0.57
2023-01-28T07:08:38.075Z,0.54
2023-01-28T07:11:07.796Z,0.43
2023-01-28T07:13:37.091Z,0.45
2023-01-28T07:16:07.127Z,0.43
2023-01-28T07:18:36.411Z,0.39
2023-01-28T07:21:06.040Z,0.45
2023-01-28T07:23:35.276Z,0.43
2023-01-28T07:26:06.035Z,0.46
2023-01-28T07:28:35.247Z,0.51
2023-01-28T07:31:04.863Z,0.47
2023-01-28T07:33:34.298Z,0.42
2023-01-28T07:36:03.618Z,0.47
2023-01-28T07:38:32.936Z,0.44
2023-01-28T07:41:02.477Z,0.43
2023-01-28T07:43:31.988Z,0.44
2023-01-28T07:46:04.600Z,0.50
2023-01-28T07:48:33.989Z,0.51
2023-01-28T07:51:03.207Z,0.48
2023-01-28T07:53:32.455Z,0.52
2023-01-28T07:56:02.709Z,0.58
2023-01-28T07:58:34.592Z,0.57
2023-01-28T08:01:04.542Z,0.55
2023-01-28T08:03:34.727Z,0.58
2023-01-28T08:06:04.123Z,0.55
2023-01-28T08:08:33.712Z,0.56
2023-01-28T08:11:11.835Z,0.48
2023-01-28T08:13:41.063Z,0.59
2023-01-28T08:16:10.702Z,0.57
2023-01-28T08:18:40.031Z,0.60
2023-01-28T08:21:09.368Z,0.65
2023-01-28T08:23:38.618Z,0.65
2023-01-28T08:26:07.941Z,0.64
2023-01-28T08:28:37.554Z,0.67
2023-01-28T08:31:07.394Z,0.72
2023-01-28T08:33:37.292Z,0.70
2023-01-28T08:36:07.442Z,0.72
2023-01-28T08:38:36.771Z,0.72
2023-01-28T08:41:06.176Z,0.79
2023-01-28T08:43:35.366Z,0.84
2023-01-28T08:46:08.051Z,0.81
2023-01-28T08:48:38.507Z,0.86
2023-01-28T08:51:08.553Z,0.89
2023-01-28T08:53:37.792Z,0.91
2023-01-28T08:56:07.761Z,0.91
2023-01-28T08:58:37.131Z,0.89
2023-01-28T09:01:07.215Z,0.97
2023-01-28T09:03:36.556Z,1.01
2023-01-28T09:06:06.779Z,1.02
2023-01-28T09:08:36.019Z,0.95
2023-01-28T09:11:05.836Z,0.84
2023-01-28T09:13:35.154Z,0.93
2023-01-28T09:16:06.713Z,0.90
2023-01-28T09:18:36.042Z,0.96
2023-01-28T09:21:09.960Z,0.99
2023-01-28T09:23:39.947Z,1.01
2023-01-28T09:26:09.881Z,1.02
2023-01-28T09:28:40.220Z,0.93
2023-01-28T09:31:12.400Z,1.01
2023-01-28T09:33:42.231Z,1.05
2023-01-28T09:36:12.473Z,1.01
2023-01-28T09:38:41.655Z,0.99
2023-01-28T09:41:14.201Z,1.08
2023-01-28T09:43:47.283Z,1.14
2023-01-28T09:46:18.511Z,1.17
2023-01-28T09:48:51.226Z,1.32
2023-01-28T09:51:30.209Z,1.36
2023-01-28T09:54:02.599Z,1.76
2023-01-28T09:56:35.210Z,2.21
2023-01-28T09:59:07.631Z,2.12
2023-01-28T10:01:46.017Z,2.29
2023-01-28T10:04:23.320Z,2.56
2023-01-28T10:07:04.749Z,3.38
2023-01-28T10:10:00.744Z,5.06
2023-01-28T10:12:42.175Z,6.00
2023-01-28T10:15:30.039Z,7.79
2023-01-28T10:18:16.404Z,7.51
2023-01-28T10:20:41.124Z,8.18
2023-01-28T10:23:22.494Z,7.41
2023-01-28T10:25:52.274Z,8.01
2023-01-28T10:28:26.786Z,6.86
2023-01-28T10:30:56.624Z,8.49
2023-01-28T10:33:40.009Z,9.07
2023-01-28T10:36:10.892Z,8.94
2023-01-28T10:38:40.275Z,8.35
2023-01-28T10:41:11.136Z,9.23
2023-01-28T10:43:43.791Z,8.69
2023-01-28T10:46:18.462Z,9.28
2023-01-28T10:49:07.718Z,8.95
2023-01-28T10:51:42.327Z,8.98
2023-01-28T10:54:23.239Z,8.74
2023-01-28T10:56:54.888Z,8.90
2023-01-28T10:59:32.685Z,9.51
2023-01-28T11:02:07.314Z,9.93
2023-01-28T11:04:38.045Z,8.46
2023-01-28T11:07:10.105Z,8.69
2023-01-28T11:09:39.872Z,9.82
2023-01-28T11:12:27.523Z,10.07
2023-01-28T11:15:02.040Z,10.01
2023-01-28T11:17:35.926Z,9.28
2023-01-28T11:20:20.534Z,10.78
2023-01-28T11:22:50.431Z,9.93
2023-01-28T11:25:31.952Z,9.68
2023-01-28T11:28:03.191Z,9.15
2023-01-28T11:30:34.758Z,9.11
2023-01-28T11:33:18.135Z,8.54
2023-01-28T11:35:59.684Z,9.14
2023-01-28T11:38:29.146Z,9.60
2023-01-28T11:41:01.299Z,8.25
2023-01-28T11:43:32.220Z,7.99
2023-01-28T11:46:05.384Z,7.78
2023-01-28T11:48:44.581Z,7.89
2023-01-28T11:51:31.892Z,8.90
2023-01-28T11:54:24.074Z,8.01
2023-01-28T11:57:08.604Z,8.32
2023-01-28T11:59:46.894Z,8.42
2023-01-28T12:02:31.210Z,8.58
2023-01-28T12:05:22.015Z,8.55
2023-01-28T12:07:56.974Z,7.49
2023-01-28T12:10:41.491Z,7.71
2023-01-28T12:13:28.829Z,6.67
2023-01-28T12:16:03.951Z,6.19
2023-01-28T12:18:39.112Z,5.96
2023-01-28T12:21:17.504Z,5.55
2023-01-28T12:24:01.734Z,5.86
2023-01-28T12:26:55.859Z,6.04
2023-01-28T12:29:47.643Z,5.74
2023-01-28T12:32:40.694Z,6.14
2023-01-28T12:35:32.507Z,5.82
2023-01-28T12:38:08.173Z,6.63
2023-01-28T12:40:49.580Z,5.98
2023-01-28T12:43:25.606Z,7.09
2023-01-28T12:46:01.100Z,7.23
2023-01-28T12:48:42.035Z,7.05
2023-01-28T12:51:36.754Z,7.23
2023-01-28T12:54:09.231Z,7.09
2023-01-28T12:56:41.663Z,7.16
2023-01-28T12:59:22.979Z,6.67
2023-01-28T13:02:16.411Z,5.60
2023-01-28T13:04:54.564Z,4.61
2023-01-28T13:07:42.581Z,4.90
2023-01-28T13:10:24.217Z,4.67
2023-01-28T13:12:53.764Z,4.91
2023-01-28T13:15:24.238Z,4.51
2023-01-28T13:17:59.814Z,4.30
2023-01-28T13:20:50.271Z,4.21
2023-01-28T13:23:46.479Z,3.88
2023-01-28T13:26:25.316Z,3.96
2023-01-28T13:28:55.983Z,3.77
2023-01-28T13:31:25.878Z,3.54
2023-01-28T13:33:58.264Z,3.36
2023-01-28T13:36:30.120Z,3.02
2023-01-28T13:39:14.536Z,3.03
2023-01-28T13:41:47.646Z,2.82
2023-01-28T13:44:28.578Z,2.74
2023-01-28T13:47:11.149Z,2.68
2023-01-28T13:49:49.679Z,2.71
2023-01-28T13:52:31.896Z,2.81
2023-01-28T13:55:06.994Z,2.96
2023-01-28T13:57:45.846Z,2.89
2023-01-28T14:00:26.576Z,2.79
2023-01-28T14:03:18.191Z,2.69
2023-01-28T14:06:11.544Z,2.85
2023-01-28T14:09:08.546Z,2.75
2023-01-28T14:12:01.726Z,2.90
2023-01-28T14:14:37.248Z,3.18
2023-01-28T14:17:38.446Z,3.24
2023-01-28T14:20:11.463Z,3.31
2023-01-28T14:22:42.931Z,3.36
2023-01-28T14:25:18.454Z,3.44
2023-01-28T14:27:51.041Z,3.36
2023-01-28T14:30:27.895Z,3.36
2023-01-28T14:32:57.475Z,3.09
2023-01-28T14:35:34.921Z,2.99
2023-01-28T14:38:09.257Z,2.99
2023-01-28T14:40:40.151Z,2.85
2023-01-28T14:43:12.728Z,2.95
2023-01-28T14:45:49.025Z,2.93
2023-01-28T14:48:46.849Z,2.91
2023-01-28T14:51:30.272Z,2.84
2023-01-28T14:54:21.860Z,2.82
2023-01-28T14:57:12.733Z,2.69
2023-01-28T14:59:49.762Z,2.65
2023-01-28T15:02:22.507Z,2.58
2023-01-28T15:04:52.692Z,2.49
2023-01-28T15:07:27.913Z,2.51
2023-01-28T15:10:05.797Z,2.53
2023-01-28T15:12:40.069Z,2.45
2023-01-28T15:15:25.056Z,2.43
2023-01-28T15:17:54.729Z,2.42
2023-01-28T15:20:25.773Z,2.37
2023-01-28T15:22:55.694Z,2.40
2023-01-28T15:25:27.364Z,2.32
2023-01-28T15:27:59.148Z,2.21
2023-01-28T15:30:31.371Z,2.14
2023-01-28T15:33:17.282Z,2.09
2023-01-28T15:35:50.215Z,2.00
2023-01-28T15:38:19.899Z,1.99
2023-01-28T15:41:03.350Z,1.92
2023-01-28T15:43:35.091Z,1.89
2023-01-28T15:46:05.343Z,1.82
2023-01-28T15:48:36.181Z,1.68
2023-01-28T15:51:10.902Z,1.62
2023-01-28T15:53:45.514Z,1.65
2023-01-28T15:56:16.345Z,1.56
2023-01-28T15:58:46.233Z,1.55
2023-01-28T16:01:17.165Z,1.54
2023-01-28T16:03:48.081Z,1.53
2023-01-28T16:06:22.567Z,1.50
2023-01-28T16:08:59.594Z,1.45
2023-01-28T16:11:34.533Z,1.45
2023-01-28T16:14:04.224Z,1.46
2023-01-28T16:16:36.100Z,1.38
2023-01-28T16:19:07.835Z,1.35
2023-01-28T16:21:39.928Z,1.34
2023-01-28T16:24:31.735Z,1.43
2023-01-28T16:27:09.927Z,1.59
2023-01-28T16:29:39.580Z,1.65
2023-01-28T16:32:12.167Z,1.65
2023-01-28T16:34:42.319Z,1.68
2023-01-28T16:37:11.794Z,1.74
2023-01-28T16:39:41.019Z,1.76
2023-01-28T16:42:10.330Z,1.75
2023-01-28T16:44:39.532Z,1.69
2023-01-28T16:47:09.489Z,1.67
2023-01-28T16:49:39.941Z,1.71
2023-01-28T16:52:10.431Z,1.71
2023-01-28T16:54:41.403Z,1.69
2023-01-28T16:57:12.359Z,1.68
2023-01-28T16:59:41.582Z,1.68
2023-01-28T17:02:15.678Z,1.68
2023-01-28T17:04:45.689Z,1.68
2023-01-28T17:07:14.915Z,1.72
2023-01-28T17:09:44.298Z,1.72
2023-01-28T17:12:13.513Z,1.70
2023-01-28T17:14:43.012Z,1.82
2023-01-28T17:17:12.268Z,1.93
2023-01-28T17:19:41.953Z,1.91
2023-01-28T17:22:11.147Z,1.89
2023-01-28T17:24:40.529Z,1.84
2023-01-28T17:27:09.805Z,1.80
2023-01-28T17:29:39.615Z,1.75
2023-01-28T17:32:08.862Z,1.84
2023-01-28T17:34:38.387Z,1.84
2023-01-28T17:37:07.875Z,1.83
2023-01-28T17:39:37.348Z,1.85
2023-01-28T17:42:06.932Z,1.82
2023-01-28T17:44:36.143Z,1.83
2023-01-28T17:47:05.518Z,1.78
2023-01-28T17:49:34.725Z,1.76
2023-01-28T17:52:04.790Z,1.70
2023-01-28T17:54:35.689Z,1.78
2023-01-28T17:57:05.081Z,1.73
2023-01-28T17:59:34.331Z,1.70
2023-01-28T18:02:05.456Z,1.66
2023-01-28T18:04:39.923Z,1.72
2023-01-28T18:07:12.851Z,1.70
2023-01-28T18:09:45.887Z,1.67
2023-01-28T18:12:16.410Z,1.75
2023-01-28T18:14:45.760Z,1.78
2023-01-28T18:17:15.561Z,1.68
2023-01-28T18:19:44.879Z,1.69
2023-01-28T18:22:14.044Z,1.69
2023-01-28T18:24:43.512Z,1.66
2023-01-28T18:27:12.720Z,1.66
2023-01-28T18:29:42.290Z,1.59
2023-01-28T18:32:11.554Z,1.52
2023-01-28T18:34:41.080Z,1.45
2023-01-28T18:37:10.278Z,1.45
2023-01-28T18:39:39.810Z,1.47
2023-01-28T18:42:09.179Z,1.47
2023-01-28T18:44:38.531Z,1.41
2023-01-28T18:47:07.756Z,1.36
2023-01-28T18:49:37.263Z,1.37
2023-01-28T18:52:06.584Z,1.33
2023-01-28T18:54:35.919Z,1.36
2023-01-28T18:57:05.882Z,1.35
2023-01-28T18:59:35.368Z,1.33
2023-01-28T19:02:04.917Z,1.30
2023-01-28T19:04:34.219Z,1.24
2023-01-28T19:07:07.166Z,1.26
2023-01-28T19:09:35.555Z,1.25
2023-01-28T19:12:05.695Z,1.26
2023-01-28T19:14:35.159Z,1.21
2023-01-28T19:17:04.481Z,1.17
2023-01-28T19:19:33.724Z,1.13
2023-01-28T19:22:04.958Z,1.13
2023-01-28T19:24:35.233Z,1.11
2023-01-28T19:27:04.904Z,1.08
2023-01-28T19:29:34.221Z,1.08
2023-01-28T19:32:04.703Z,1.07
2023-01-28T19:34:33.915Z,1.10
2023-01-28T19:37:03.186Z,1.10
2023-01-28T19:39:32.483Z,1.07
2023-01-28T19:42:02.443Z,1.09
2023-01-28T19:44:32.706Z,1.08
2023-01-28T19:47:02.569Z,1.07
2023-01-28T19:49:31.968Z,1.04
2023-01-28T19:52:01.664Z,1.06
2023-01-28T19:54:30.902Z,1.14
2023-01-28T19:57:00.540Z,1.11
2023-01-28T19:59:29.794Z,1.09
2023-01-28T20:01:59.267Z,1.07
2023-01-28T20:04:28.502Z,1.09
2023-01-28T20:06:57.952Z,0.99
2023-01-28T20:09:27.354Z,1.05
2023-01-28T20:11:56.828Z,1.01
2023-01-28T20:14:28.309Z,0.94
2023-01-28T20:16:59.504Z,0.91
2023-01-28T20:19:28.951Z,0.89
2023-01-28T20:21:58.786Z,0.85
2023-01-28T20:24:28.123Z,0.85
2023-01-28T20:26:58.078Z,0.72
2023-01-28T20:29:27.449Z,0.91
2023-01-28T20:32:13.693Z,0.94
2023-01-28T20:34:27.853Z,0.99
2023-01-28T20:36:57.556Z,0.99
2023-01-28T20:39:26.894Z,0.99
2023-01-28T20:41:56.213Z,1.04
2023-01-28T20:44:26.991Z,1.14
2023-01-28T20:46:56.218Z,1.19
2023-01-28T20:49:28.112Z,1.11
2023-01-28T20:51:57.224Z,1.16
2023-01-28T20:54:26.662Z,1.14
2023-01-28T20:56:57.369Z,1.10
2023-01-28T20:59:27.841Z,1.13
2023-01-28T21:01:57.070Z,1.22
2023-01-28T21:04:26.664Z,1.18
2023-01-28T21:06:55.913Z,1.17
2023-01-28T21:09:27.332Z,1.15
2023-01-28T21:11:56.579Z,1.13
2023-01-28T21:14:26.325Z,1.19
2023-01-28T21:16:55.629Z,1.17
2023-01-28T21:19:25.284Z,1.10
2023-01-28T21:21:54.906Z,1.06
2023-01-28T21:24:24.250Z,1.04
2023-01-28T21:26:53.522Z,1.03
2023-01-28T21:29:22.948Z,1.01
2023-01-28T21:31:52.288Z,1.01
2023-01-28T21:34:24.049Z,1.00
2023-01-28T21:36:53.528Z,1.00
2023-01-28T21:39:23.090Z,1.02
2023-01-28T21:41:52.349Z,1.07
2023-01-28T21:44:22.276Z,1.01
2023-01-28T21:46:51.466Z,0.97
2023-01-28T21:49:20.785Z,0.95
2023-01-28T21:51:50.013Z,0.94
2023-01-28T21:54:20.888Z,0.96
2023-01-28T21:56:51.052Z,0.96
2023-01-28T21:59:30.913Z,0.89
2023-01-28T22:02:10.973Z,0.89
2023-01-28T22:04:46.493Z,0.93
2023-01-28T22:07:20.195Z,0.85
2023-01-28T22:09:50.899Z,0.89
2023-01-28T22:12:21.656Z,0.83
2023-01-28T22:14:51.347Z,0.78
2023-01-28T22:17:22.397Z,0.77
2023-01-28T22:19:51.856Z,0.68
2023-01-28T22:22:22.923Z,0.66
2023-01-28T22:24:52.267Z,0.63
2023-01-28T22:27:21.543Z,0.65
2023-01-28T22:29:51.270Z,0.61
2023-01-28T22:32:20.479Z,0.66
2023-01-28T22:34:49.890Z,0.62
2023-01-28T22:37:19.093Z,0.64
2023-01-28T22:39:48.378Z,0.69
2023-01-28T22:42:17.629Z,0.70
2023-01-28T22:44:47.054Z,0.67
2023-01-28T22:47:16.249Z,0.59
2023-01-28T22:49:45.779Z,0.54
2023-01-28T22:52:15.042Z,0.54
2023-01-28T22:54:44.369Z,0.47
2023-01-28T22:57:13.657Z,0.49
2023-01-28T22:59:48.446Z,0.55
2023-01-28T23:02:13.930Z,0.48
2023-01-28T23:04:44.951Z,0.44
2023-01-28T23:07:14.365Z,0.42
2023-01-28T23:09:45.254Z,0.39
2023-01-28T23:12:14.491Z,0.33
2023-01-28T23:15:01.706Z,0.32
2023-01-28T23:17:49.092Z,0.33
2023-01-28T23:20:36.693Z,0.30
2023-01-28T23:23:24.151Z,0.37
2023-01-28T23:25:53.387Z,0.42
2023-01-28T23:28:22.599Z,0.39
2023-01-28T23:30:52.622Z,0.32
2023-01-28T23:33:22.115Z,0.31
2023-01-28T23:35:51.612Z,0.30
2023-01-28T23:38:20.887Z,0.30
2023-01-28T23:40:50.350Z,0.35
2023-01-28T23:43:19.739Z,0.37
2023-01-28T23:45:48.990Z,0.41
2023-01-28T23:48:18.413Z,0.30
2023-01-28T23:50:48.198Z,0.28
2023-01-28T23:53:17.463Z,0.27
2023-01-28T23:55:46.689Z,0.24
2023-01-28T23:58:16.751Z,0.22
